Time;durP1;ratioP1;P1;durP2;ratioP2;P2;SDS_P1;SDS_P2;PMS_P1;PMS_P2;Temp;Humidity;BMP_temperature;BMP_pressure;BME280_temperature;BME280_humidity;BME280_pressure;Samples;Min_cycle;Max_cycle;Signal;HPM_P1;HPM_P2
2021/11/08 00:01:33;;;;;;;23.47;5.20;;;;;;;8.05;100.00;101945.13;5242346;28;19917;-69
2021/11/08 00:04:05;;;;;;;18.27;4.63;;;;;;;7.94;100.00;101943.13;5243047;28;20112;-69
2021/11/08 00:06:36;;;;;;;17.45;4.97;;;;;;;7.90;100.00;101944.22;5244219;28;20337;-69
2021/11/08 00:09:08;;;;;;;17.95;5.10;;;;;;;7.88;100.00;101940.88;5245344;28;20021;-69
2021/11/08 00:11:40;;;;;;;19.08;5.07;;;;;;;7.87;100.00;101944.41;5243111;28;20033;-69
2021/11/08 00:14:16;;;;;;;27.10;5.63;;;;;;;7.86;100.00;101937.50;5243261;28;20032;-71
2021/11/08 00:22:19;;;;;;;20.50;5.68;;;;;;;7.82;100.00;101945.59;5240487;28;20044;-69
2021/11/08 00:24:52;;;;;;;24.33;5.65;;;;;;;7.76;100.00;101938.94;5241552;28;20040;-69
2021/11/08 00:27:23;;;;;;;18.90;5.10;;;;;;;7.80;100.00;101940.44;5242619;28;20025;-69
2021/11/08 00:29:54;;;;;;;17.55;5.50;;;;;;;7.76;100.00;101944.16;5244089;28;20027;-69
2021/11/08 00:32:25;;;;;;;22.75;6.10;;;;;;;7.73;100.00;101944.34;5245271;28;20098;-69
2021/11/08 00:34:57;;;;;;;18.50;5.10;;;;;;;7.69;100.00;101940.19;5244856;28;20021;-69
2021/11/08 00:37:28;;;;;;;26.65;6.35;;;;;;;7.66;100.00;101937.78;5244905;28;20033;-69
2021/11/08 00:40:00;;;;;;;23.20;5.70;;;;;;;7.65;100.00;101938.69;5243278;28;20029;-69
2021/11/08 00:42:31;;;;;;;22.73;6.47;;;;;;;7.63;100.00;101945.75;5241025;28;20029;-69
2021/11/08 00:45:03;;;;;;;22.17;7.20;;;;;;;7.59;100.00;101941.66;5245872;28;20033;-69
2021/11/08 00:47:35;;;;;;;19.95;6.07;;;;;;;7.57;100.00;101934.72;5243321;28;20040;-69
2021/11/08 00:50:08;;;;;;;16.98;5.32;;;;;;;7.56;100.00;101940.03;5242053;28;20489;-69
2021/11/08 00:52:39;;;;;;;20.52;6.22;;;;;;;7.51;100.00;101945.50;5241829;28;20087;-69
2021/11/08 00:55:11;;;;;;;23.23;6.18;;;;;;;7.54;100.00;101940.13;5243030;28;20482;-69
2021/11/08 00:57:47;;;;;;;18.83;5.40;;;;;;;7.50;100.00;101938.63;5244340;28;20052;-69
2021/11/08 01:00:20;;;;;;;22.00;5.70;;;;;;;7.51;100.00;101945.50;5242511;28;20026;-69
2021/11/08 01:02:52;;;;;;;20.20;6.10;;;;;;;7.54;100.00;101944.50;5243713;28;20017;-69
2021/11/08 01:05:24;;;;;;;19.08;5.50;;;;;;;7.52;100.00;101954.16;5244439;28;20083;-70
2021/11/08 01:07:55;;;;;;;20.33;6.13;;;;;;;7.50;100.00;101962.09;5243439;28;20155;-69
2021/11/08 01:10:27;;;;;;;25.13;5.80;;;;;;;7.50;100.00;101966.44;5242487;28;20023;-69
2021/11/08 01:12:58;;;;;;;16.95;4.90;;;;;;;7.46;100.00;101964.91;5242997;28;20021;-70
2021/11/08 01:15:29;;;;;;;19.70;5.72;;;;;;;7.47;100.00;101966.63;5242610;28;20052;-69
2021/11/08 01:18:00;;;;;;;19.77;5.82;;;;;;;7.40;100.00;101966.09;5242166;28;20060;-69
2021/11/08 01:20:34;;;;;;;20.33;6.45;;;;;;;7.41;100.00;101961.72;5241723;28;20025;-69
2021/11/08 01:23:06;;;;;;;25.05;5.85;;;;;;;7.38;100.00;101961.88;5242943;28;20378;-70
2021/11/08 01:25:37;;;;;;;19.38;6.22;;;;;;;7.39;100.00;101960.97;5241576;28;20059;-70
2021/11/08 01:28:10;;;;;;;19.67;5.70;;;;;;;7.41;100.00;101973.00;5244656;28;20476;-70
2021/11/08 01:30:41;;;;;;;26.48;6.88;;;;;;;7.42;100.00;101964.25;5243407;28;20048;-69
2021/11/08 01:33:17;;;;;;;20.90;6.13;;;;;;;7.44;100.00;101969.38;5243810;28;20041;-70
2021/11/08 01:38:49;;;;;;;20.58;6.05;;;;;;;7.47;100.00;101971.84;5242464;28;20168;-69
2021/11/08 01:41:27;;;;;;;16.65;5.40;;;;;;;7.52;100.00;101965.44;5226581;28;20032;-69
2021/11/08 01:43:58;;;;;;;19.13;5.30;;;;;;;7.54;100.00;101965.38;5240932;28;20119;-69
2021/11/08 01:46:29;;;;;;;22.75;6.78;;;;;;;7.56;100.00;101956.53;5242495;28;20124;-69
2021/11/08 01:49:01;;;;;;;27.58;6.55;;;;;;;7.61;100.00;101955.44;5241666;28;20026;-69
2021/11/08 01:51:35;;;;;;;20.60;6.88;;;;;;;7.63;100.00;101950.97;5242620;28;20029;-69
2021/11/08 01:54:08;;;;;;;24.98;6.82;;;;;;;7.62;100.00;101951.91;5241188;28;20493;-69
2021/11/08 01:56:40;;;;;;;18.35;5.75;;;;;;;7.67;100.00;101947.28;5241786;28;20125;-70
2021/11/08 01:59:13;;;;;;;26.92;7.05;;;;;;;7.70;100.00;101953.16;5224058;28;20037;-69
2021/11/08 02:01:44;;;;;;;23.10;6.50;;;;;;;7.68;100.00;101955.00;5239577;28;20040;-69
2021/11/08 02:04:17;;;;;;;24.73;6.78;;;;;;;7.72;100.00;101961.72;5240203;28;20025;-71
2021/11/08 02:06:49;;;;;;;26.30;6.47;;;;;;;7.76;100.00;101954.59;5241575;28;20076;-69
2021/11/08 02:09:21;;;;;;;24.20;6.78;;;;;;;7.72;100.00;101953.06;5242173;28;20029;-69
2021/11/08 02:11:52;;;;;;;21.83;5.80;;;;;;;7.75;100.00;101958.13;5240573;28;20398;-69
2021/11/08 02:14:23;;;;;;;25.95;6.78;;;;;;;7.74;100.00;101959.91;5241533;28;20029;-69
2021/11/08 02:16:55;;;;;;;25.52;6.60;;;;;;;7.75;100.00;101968.56;5240638;28;20036;-70
2021/11/08 02:19:27;;;;;;;21.40;7.00;;;;;;;7.73;100.00;101965.22;5242068;28;20036;-69
2021/11/08 02:22:01;;;;;;;22.70;6.60;;;;;;;7.71;100.00;101964.44;5241547;28;20025;-69
2021/11/08 02:24:35;;;;;;;27.42;6.90;;;;;;;7.69;100.00;101959.31;5241286;28;20489;-70
2021/11/08 02:27:07;;;;;;;19.45;6.13;;;;;;;7.68;100.00;101962.84;5239195;28;20060;-69
2021/11/08 02:29:38;;;;;;;24.00;6.65;;;;;;;7.70;100.00;101957.56;5241573;28;20033;-70
2021/11/08 02:32:11;;;;;;;20.65;6.82;;;;;;;7.70;100.00;101958.38;5240310;28;20037;-70
2021/11/08 02:34:43;;;;;;;19.33;6.35;;;;;;;7.64;100.00;101960.47;5242391;28;20053;-69
2021/11/08 02:37:15;;;;;;;27.00;7.38;;;;;;;7.64;100.00;101963.09;5240110;28;20082;-70
2021/11/08 02:39:49;;;;;;;21.00;6.30;;;;;;;7.63;100.00;101971.84;5239572;28;20426;-69
2021/11/08 02:42:20;;;;;;;18.30;6.97;;;;;;;7.62;100.00;101975.38;5243103;28;20104;-69
2021/11/08 02:44:52;;;;;;;27.55;6.63;;;;;;;7.62;100.00;101967.56;5241697;28;20025;-70
2021/11/08 02:47:23;;;;;;;20.98;6.20;;;;;;;7.61;100.00;101966.69;5242374;28;20033;-69
2021/11/08 02:49:57;;;;;;;25.45;6.25;;;;;;;7.61;100.00;101966.69;5240723;28;20021;-69
2021/11/08 02:52:28;;;;;;;26.20;6.40;;;;;;;7.55;100.00;101977.47;5243215;28;20041;-69
2021/11/08 02:55:01;;;;;;;23.25;6.63;;;;;;;7.50;100.00;101967.31;5241910;28;20039;-70
2021/11/08 02:57:36;;;;;;;19.52;5.95;;;;;;;7.50;100.00;101974.25;5240486;28;20120;-70
2021/11/08 03:00:11;;;;;;;16.85;6.07;;;;;;;7.49;100.00;101975.19;5240186;28;20025;-69
2021/11/08 03:02:44;;;;;;;17.17;5.78;;;;;;;7.42;100.00;101971.22;5240546;28;20029;-69
2021/11/08 03:05:18;;;;;;;16.50;5.60;;;;;;;7.39;100.00;101968.81;5239387;28;20108;-70
2021/11/08 03:07:49;;;;;;;25.13;6.88;;;;;;;7.30;100.00;101968.34;5239660;28;20087;-69
2021/11/08 03:10:23;;;;;;;26.23;7.45;;;;;;;7.31;100.00;101963.97;5242852;28;20570;-69
2021/11/08 03:12:57;;;;;;;25.10;7.03;;;;;;;7.21;100.00;101960.19;5241936;28;20025;-70
2021/11/08 03:18:05;;;;;;;22.02;7.47;;;;;;;7.25;100.00;101980.78;5238824;28;20052;-69
2021/11/08 03:20:37;;;;;;;21.63;6.25;;;;;;;7.16;100.00;101981.28;5238164;28;20029;-70
2021/11/08 03:23:09;;;;;;;20.88;7.25;;;;;;;7.13;100.00;101978.84;5240078;28;20021;-69
2021/11/08 03:25:48;;;;;;;20.42;6.70;;;;;;;7.15;100.00;101982.19;5242184;28;20380;-70
2021/11/08 03:28:19;;;;;;;21.27;6.90;;;;;;;7.09;100.00;101989.50;5241995;28;20088;-69
2021/11/08 03:30:51;;;;;;;18.38;6.72;;;;;;;7.10;100.00;101989.41;5242078;28;20101;-70
2021/11/08 03:33:24;;;;;;;24.50;6.88;;;;;;;7.08;100.00;101988.63;5243618;28;20056;-70
2021/11/08 03:35:58;;;;;;;22.75;6.63;;;;;;;7.08;100.00;101988.63;5245544;28;20022;-70
2021/11/08 03:38:36;;;;;;;27.85;7.65;;;;;;;7.04;100.00;101987.09;5244593;28;20033;-70
2021/11/08 03:41:08;;;;;;;26.95;7.47;;;;;;;7.06;100.00;101990.50;5244268;28;20048;-69
2021/11/08 03:43:40;;;;;;;27.53;8.27;;;;;;;7.07;100.00;101993.00;5241497;28;20021;-69
2021/11/08 03:46:11;;;;;;;29.08;8.10;;;;;;;7.07;100.00;101993.00;5243599;28;20037;-70
2021/11/08 03:48:44;;;;;;;28.00;8.35;;;;;;;7.09;100.00;101989.50;5243769;28;20078;-69
2021/11/08 03:51:15;;;;;;;24.75;8.10;;;;;;;7.09;100.00;101985.13;5244668;28;20036;-69
2021/11/08 03:53:47;;;;;;;23.42;7.68;;;;;;;7.06;100.00;101988.72;5242153;28;20492;-69
2021/11/08 03:56:18;;;;;;;27.45;8.85;;;;;;;7.07;100.00;101995.59;5243464;28;20479;-69
2021/11/08 03:58:50;;;;;;;21.83;7.28;;;;;;;7.13;100.00;102006.66;5244797;28;20064;-69
2021/11/08 04:01:22;;;;;;;21.38;8.10;;;;;;;7.12;100.00;101992.75;5244996;28;20025;-69
2021/11/08 04:03:54;;;;;;;24.92;8.13;;;;;;;7.13;100.00;102004.06;5241719;28;20021;-70
2021/11/08 04:06:25;;;;;;;24.17;7.93;;;;;;;7.15;100.00;101995.22;5245663;28;20033;-69
2021/11/08 04:08:59;;;;;;;27.77;7.90;;;;;;;7.20;100.00;102008.88;5244745;28;20097;-69
2021/11/08 04:11:31;;;;;;;25.90;7.82;;;;;;;7.21;100.00;102009.72;5244516;28;20032;-69
2021/11/08 04:14:03;;;;;;;29.23;8.48;;;;;;;7.23;100.00;102006.06;5244745;28;20017;-69
2021/11/08 04:16:35;;;;;;;26.77;8.13;;;;;;;7.23;100.00;102008.69;5243158;28;20962;-70
2021/11/08 04:19:07;;;;;;;26.13;7.72;;;;;;;7.25;100.00;102013.84;5242332;28;20024;-70
2021/11/08 04:21:40;;;;;;;29.52;8.40;;;;;;;7.28;100.00;102016.28;5244395;28;20028;-69
2021/11/08 04:24:11;;;;;;;35.53;8.27;;;;;;;7.30;100.00;102004.84;5244572;28;20053;-69
2021/11/08 04:26:43;;;;;;;30.27;7.95;;;;;;;7.32;100.00;102008.22;5242441;28;20451;-69
2021/11/08 04:29:14;;;;;;;29.30;8.65;;;;;;;7.34;100.00;102010.72;5244288;28;20119;-69
2021/11/08 04:31:46;;;;;;;20.80;7.32;;;;;;;7.37;100.00;102013.19;5243821;28;20497;-70
2021/11/08 04:34:27;;;;;;;19.45;7.32;;;;;;;7.39;100.00;102008.75;5244481;28;20044;-69
2021/11/08 04:37:33;;;;;;;27.77;8.10;;;;;;;7.40;100.00;102004.38;5243228;28;20033;-71
2021/11/08 04:40:22;;;;;;;27.05;7.63;;;;;;;7.42;100.00;102005.13;5243180;28;20112;-70
2021/11/08 04:42:59;;;;;;;26.33;7.75;;;;;;;7.43;100.00;102005.06;5245782;28;20463;-69
2021/11/08 04:45:50;;;;;;;28.50;7.90;;;;;;;7.41;100.00;102006.03;5243646;28;20033;-70
2021/11/08 04:51:01;;;;;;;23.73;8.27;;;;;;;7.45;100.00;102011.00;5244431;28;20478;-69
2021/11/08 04:53:44;;;;;;;25.80;7.85;;;;;;;7.42;100.00;102016.38;5243335;28;20037;-70
2021/11/08 05:21:03;;;;;;;28.50;8.23;;;;;;;7.43;100.00;102012.88;5242916;28;20030;-70
2021/11/08 05:21:58;;;;;;;27.95;8.60;;;;;;;7.40;100.00;102020.84;5242663;28;20116;-69
2021/11/08 05:32:29;;;;;;;30.90;8.32;;;;;;;7.54;100.00;102044.44;5243088;28;20498;-69
2021/11/08 05:35:01;;;;;;;30.08;8.75;;;;;;;7.46;100.00;102051.81;5242526;28;20033;-69
2021/11/08 05:37:34;;;;;;;24.45;8.52;;;;;;;7.50;100.00;102040.31;5219088;28;20706;-70
2021/11/08 05:40:11;;;;;;;29.25;9.43;;;;;;;7.49;100.00;102040.38;5242168;28;20079;-69
2021/11/08 05:42:43;;;;;;;27.60;9.25;;;;;;;7.49;100.00;102041.22;5241672;28;20390;-69
2021/11/08 05:45:16;;;;;;;27.45;9.13;;;;;;;7.50;100.00;102042.94;5241864;28;20037;-70
2021/11/08 05:47:48;;;;;;;30.85;9.23;;;;;;;7.54;100.00;102049.66;5241752;28;20022;-69
2021/11/08 05:50:21;;;;;;;27.70;8.85;;;;;;;7.52;100.00;102054.09;5240937;28;20053;-69
2021/11/08 05:52:53;;;;;;;25.67;8.77;;;;;;;7.54;100.00;102049.66;5243495;28;20439;-69
2021/11/08 05:55:36;;;;;;;29.15;8.65;;;;;;;7.53;100.00;102061.00;5240957;28;20040;-69
2021/11/08 05:58:18;;;;;;;23.17;9.35;;;;;;;7.50;100.00;102052.47;5242653;28;20537;-70
2021/11/08 06:49:14;;;;;;;25.98;9.05;;;;;;;7.65;100.00;102090.81;5244989;28;20029;-70
2021/11/08 06:51:47;;;;;;;27.55;9.00;;;;;;;7.65;100.00;102095.16;5244317;28;20422;-70
2021/11/08 06:54:19;;;;;;;35.40;10.07;;;;;;;7.69;100.00;102099.31;5243890;28;20175;-70
2021/11/08 06:57:36;;;;;;;27.70;8.83;;;;;;;7.70;100.00;102101.84;5244444;28;20048;-70
2021/11/08 06:59:50;;;;;;;28.20;9.32;;;;;;;7.71;100.00;102095.69;5235794;28;20812;-70
2021/11/08 07:02:21;;;;;;;22.35;8.00;;;;;;;7.70;100.00;102108.84;5237127;28;20061;-70
2021/11/08 07:04:53;;;;;;;24.20;8.82;;;;;;;7.71;100.00;102103.53;5241190;28;20115;-70
2021/11/08 07:07:25;;;;;;;31.55;8.50;;;;;;;7.72;100.00;102106.97;5245456;28;20090;-70
2021/11/08 07:09:56;;;;;;;25.05;9.45;;;;;;;7.73;100.00;102108.69;5248683;28;20063;-70
2021/11/08 07:12:27;;;;;;;23.58;8.48;;;;;;;7.74;100.00;102110.34;5247143;28;20644;-71
2021/11/08 07:14:59;;;;;;;26.90;9.02;;;;;;;7.73;100.00;102112.13;5246603;28;20063;-69
2021/11/08 07:17:32;;;;;;;24.80;8.75;;;;;;;7.75;100.00;102117.25;5246563;28;20086;-70
2021/11/08 07:20:05;;;;;;;27.95;8.45;;;;;;;7.74;100.00;102108.59;5245974;28;20478;-70
2021/11/08 07:22:36;;;;;;;18.63;7.90;;;;;;;7.82;100.00;102123.00;5247277;28;20117;-70
2021/11/08 07:25:09;;;;;;;30.10;9.00;;;;;;;7.83;100.00;102125.50;5246387;28;20045;-70
2021/11/08 07:27:40;;;;;;;22.52;8.15;;;;;;;7.82;100.00;102126.44;5248790;28;20194;-70
2021/11/08 07:30:12;;;;;;;24.42;8.35;;;;;;;7.86;100.00;102129.75;5250333;28;20112;-70
2021/11/08 07:32:44;;;;;;;28.63;9.27;;;;;;;7.89;100.00;102134.81;5249376;28;20451;-70
2021/11/08 07:35:15;;;;;;;24.40;9.68;;;;;;;7.88;100.00;102128.75;5248399;28;20378;-70
2021/11/08 07:37:47;;;;;;;26.13;8.75;;;;;;;7.88;100.00;102131.34;5248306;28;20099;-70
2021/11/08 07:40:18;;;;;;;25.75;8.55;;;;;;;7.90;100.00;102134.72;5245944;28;20024;-70
2021/11/08 07:42:49;;;;;;;26.15;10.25;;;;;;;7.92;100.00;102137.25;5246489;28;20053;-70
2021/11/08 07:45:21;;;;;;;29.75;9.43;;;;;;;7.96;100.00;102137.00;5225362;28;20037;-70
2021/11/08 07:47:53;;;;;;;21.77;7.82;;;;;;;7.99;100.00;102149.03;5248047;28;20067;-69
2021/11/08 07:50:25;;;;;;;29.92;8.80;;;;;;;8.00;100.00;102151.56;5248400;28;20040;-69
2021/11/08 07:52:56;;;;;;;25.88;8.05;;;;;;;8.03;100.00;102150.53;5247280;28;20486;-69
2021/11/08 07:55:27;;;;;;;26.52;8.18;;;;;;;8.04;100.00;102149.66;5246822;28;20106;-69
2021/11/08 07:58:01;;;;;;;22.67;8.25;;;;;;;8.07;100.00;102156.44;5247282;28;20041;-71
2021/11/08 08:00:34;;;;;;;25.55;7.82;;;;;;;8.10;100.00;102153.69;5245812;28;20502;-70
2021/11/08 08:03:06;;;;;;;30.48;9.00;;;;;;;8.10;100.00;102151.06;5248500;28;20033;-70
2021/11/08 08:05:38;;;;;;;29.83;8.82;;;;;;;8.12;100.00;102157.06;5249559;28;20032;-70
2021/11/08 08:08:09;;;;;;;26.63;8.40;;;;;;;8.14;100.00;102148.22;5247217;28;20511;-70
2021/11/08 08:10:41;;;;;;;23.77;7.78;;;;;;;8.24;100.00;102159.00;5246276;28;20494;-70
2021/11/08 08:13:12;;;;;;;26.90;8.73;;;;;;;8.25;100.00;102164.13;5247147;28;20028;-70
2021/11/08 08:15:43;;;;;;;25.65;8.07;;;;;;;8.28;100.00;102163.13;5246244;28;20394;-70
2021/11/08 08:18:15;;;;;;;24.13;7.88;;;;;;;8.32;100.00;102162.03;5246652;28;20522;-70
2021/11/08 08:20:47;;;;;;;28.33;8.23;;;;;;;8.34;100.00;102161.97;5242893;28;20044;-70
2021/11/08 08:23:18;;;;;;;25.25;8.23;;;;;;;8.32;100.00;102166.44;5245241;28;20075;-70
2021/11/08 08:25:51;;;;;;;28.00;7.50;;;;;;;8.30;100.00;102158.69;5242919;28;20140;-69
2021/11/08 08:28:22;;;;;;;28.33;7.93;;;;;;;8.41;100.00;102165.94;5241519;28;20099;-70
2021/11/08 08:30:54;;;;;;;20.05;7.65;;;;;;;8.42;100.00;102168.50;5241970;28;20026;-69
2021/11/08 08:33:27;;;;;;;23.10;7.72;;;;;;;8.47;100.00;102181.28;5243773;28;20033;-70
2021/11/08 08:35:58;;;;;;;26.48;7.97;;;;;;;8.51;100.00;102172.38;5242862;28;20514;-70
2021/11/08 08:38:30;;;;;;;25.90;8.13;;;;;;;8.55;100.00;102173.88;5245195;28;20041;-70
2021/11/08 08:41:02;;;;;;;23.92;7.40;;;;;;;8.61;100.00;102180.56;5245815;28;20065;-70
2021/11/08 08:43:33;;;;;;;26.33;8.80;;;;;;;8.69;100.00;102194.03;5240319;28;20447;-70
2021/11/08 08:46:05;;;;;;;24.77;8.60;;;;;;;8.74;100.00;102192.84;5242685;28;20057;-70
2021/11/08 08:48:37;;;;;;;23.02;7.88;;;;;;;8.81;100.00;102190.72;5245044;28;20117;-70
2021/11/08 08:51:09;;;;;;;19.55;7.32;;;;;;;8.87;100.00;102193.00;5242196;28;20080;-70
2021/11/08 08:53:40;;;;;;;27.63;8.13;;;;;;;8.90;100.00;102208.53;5244262;28;20406;-70
2021/11/08 08:56:13;;;;;;;26.10;7.38;;;;;;;8.97;100.00;102209.84;5243419;28;20038;-70
2021/11/08 08:58:45;;;;;;;;;;;;;;;9.50;100.00;102210.31;5244139;28;20121;-70
2021/11/08 09:01:16;;;;;;;29.73;7.57;;;;;;;9.13;100.00;102217.69;5243546;28;19915;-70
2021/11/08 09:03:48;;;;;;;17.73;7.95;;;;;;;9.14;100.00;102210.69;5239859;28;20192;-70
2021/11/08 09:06:19;;;;;;;26.48;7.78;;;;;;;9.18;100.00;102222.66;5241627;28;20045;-70
2021/11/08 09:08:51;;;;;;;24.80;8.75;;;;;;;9.20;100.00;102226.84;5243157;28;20033;-70
2021/11/08 09:11:25;;;;;;;27.35;9.05;;;;;;;9.22;100.00;102225.00;5243926;28;20022;-70
2021/11/08 09:14:00;;;;;;;;;;;;;;;9.75;100.00;102233.28;5244064;28;20141;-70
2021/11/08 09:16:33;;;;;;;24.73;8.45;;;;;;;9.37;100.00;102236.34;5244711;28;19927;-70
2021/11/08 09:19:05;;;;;;;27.70;9.00;;;;;;;9.35;100.00;102230.34;5243497;28;20261;-70
2021/11/08 09:21:37;;;;;;;23.20;8.23;;;;;;;9.34;100.00;102233.91;5242848;28;20159;-70
2021/11/08 09:24:08;;;;;;;23.55;7.93;;;;;;;9.29;100.00;102222.88;5241668;28;20535;-70
2021/11/08 09:26:40;;;;;;;29.95;9.10;;;;;;;9.37;100.00;102225.88;5243865;28;20052;-70
2021/11/08 09:29:11;;;;;;;24.55;8.52;;;;;;;9.37;100.00;102231.13;5241290;28;20025;-70
2021/11/08 09:31:45;;;;;;;23.42;9.00;;;;;;;9.44;100.00;102236.84;5243136;28;20497;-70
2021/11/08 09:34:20;;;;;;;24.08;8.80;;;;;;;9.37;100.00;102236.34;5243740;28;20033;-70
2021/11/08 09:36:54;;;;;;;23.83;8.88;;;;;;;9.41;100.00;102232.63;5243372;28;20056;-70
2021/11/08 09:39:28;;;;;;;20.65;8.02;;;;;;;9.42;100.00;102236.91;5241660;28;20026;-70
2021/11/08 09:42:03;;;;;;;26.48;8.65;;;;;;;9.46;100.00;102235.81;5245107;28;20056;-70
2021/11/08 09:44:35;;;;;;;23.55;7.85;;;;;;;9.49;100.00;102234.78;5243297;28;20029;-70
2021/11/08 09:47:07;;;;;;;23.25;8.68;;;;;;;9.49;100.00;102224.34;5223202;28;20041;-70
2021/11/08 09:49:46;;;;;;;25.15;8.88;;;;;;;9.59;100.00;102229.88;5243544;28;20040;-70
2021/11/08 09:52:20;;;;;;;26.85;8.90;;;;;;;9.53;100.00;102222.38;5242901;28;20048;-70
2021/11/08 09:54:53;;;;;;;24.75;8.80;;;;;;;9.61;100.00;102225.38;5241944;28;20037;-70
2021/11/08 09:57:26;;;;;;;22.40;8.02;;;;;;;9.69;100.00;102225.78;5239860;28;20040;-70
2021/11/08 09:59:57;;;;;;;22.75;8.30;;;;;;;9.70;100.00;102220.47;5240925;28;20032;-70
2021/11/08 10:02:28;;;;;;;23.05;8.55;;;;;;;9.70;100.00;102223.09;5242698;28;20507;-70
2021/11/08 10:05:00;;;;;;;28.30;8.68;;;;;;;9.74;100.00;102223.75;5240351;28;20096;-70
2021/11/08 10:07:31;;;;;;;28.08;7.57;;;;;;;9.74;100.00;102224.59;5240971;28;20396;-70
2021/11/08 10:10:03;;;;;;;25.88;7.35;;;;;;;9.79;100.00;102223.47;5242426;28;20035;-70
2021/11/08 10:12:34;;;;;;;30.50;7.85;;;;;;;9.82;100.00;102229.38;5242152;28;20031;-70
2021/11/08 10:15:08;;;;;;;26.75;8.10;;;;;;;9.92;100.00;102224.41;5240393;28;20029;-70
2021/11/08 10:17:40;;;;;;;20.75;7.57;;;;;;;9.91;100.00;102222.72;5241441;28;20332;-70
2021/11/08 10:20:18;;;;;;;30.88;8.85;;;;;;;10.03;100.00;102223.75;5239730;28;20066;-70
2021/11/08 10:22:50;;;;;;;25.95;7.60;;;;;;;9.96;100.00;102220.66;5242498;28;20144;-70
2021/11/08 10:25:22;;;;;;;26.40;7.90;;;;;;;9.95;100.00;102214.59;5241803;28;20033;-70
2021/11/08 10:27:54;;;;;;;22.55;8.18;;;;;;;10.01;100.00;102220.41;5241052;28;20043;-70
2021/11/08 10:30:32;;;;;;;26.27;8.20;;;;;;;10.16;100.00;102219.47;5240784;28;20028;-70
2021/11/08 10:33:09;;;;;;;27.40;7.32;;;;;;;10.17;100.00;102218.53;5240222;28;20047;-70
2021/11/08 10:35:44;;;;;;;24.65;8.65;;;;;;;10.20;100.00;102211.34;5240791;28;20037;-70
2021/11/08 10:38:18;;;;;;;22.50;8.07;;;;;;;10.30;100.00;102216.03;5239701;28;20112;-70
2021/11/08 10:41:12;;;;;;;26.15;7.68;;;;;;;10.38;100.00;102219.00;5240644;28;20539;-70
2021/11/08 10:43:47;;;;;;;28.20;8.57;;;;;;;10.46;100.00;102219.41;5240831;28;20031;-70
2021/11/08 10:46:24;;;;;;;24.95;7.82;;;;;;;10.43;100.00;102222.22;5241297;28;20238;-70
2021/11/08 10:49:00;;;;;;;21.10;7.15;;;;;;;10.53;100.00;102225.06;5241694;28;20644;-70
2021/11/08 10:51:35;;;;;;;24.30;7.03;;;;;;;10.47;100.00;102229.78;5241074;28;20048;-70
2021/11/08 10:54:14;;;;;;;20.52;7.30;;;;;;;10.58;100.00;102223.03;5244937;28;20041;-70
2021/11/08 10:56:52;;;;;;;18.95;7.18;;;;;;;10.61;100.00;102221.06;5246089;28;20186;-70
2021/11/08 10:59:31;;;;;;;20.08;7.00;;;;;;;10.69;100.00;102223.19;5244832;28;20030;-71
2021/11/08 11:02:06;;;;;;;25.20;7.68;;;;;;;10.66;100.00;102218.97;5243212;28;20025;-70
2021/11/08 11:04:46;;;;;;;19.02;7.70;;;;;;;10.74;100.00;102223.75;5243962;28;20052;-70
2021/11/08 11:07:32;;;;;;;24.27;7.75;;;;;;;10.78;100.00;102212.13;5245362;28;20063;-70
2021/11/08 11:10:13;;;;;;;22.70;7.07;;;;;;;10.86;100.00;102212.47;5245164;28;20037;-71
2021/11/08 11:12:47;;;;;;;23.60;7.95;;;;;;;10.83;100.00;102210.03;5242007;28;20502;-70
2021/11/08 11:15:25;;;;;;;23.90;7.32;;;;;;;10.92;100.00;102214.69;5235213;28;20644;-70
2021/11/08 11:17:59;;;;;;;19.30;5.97;;;;;;;10.84;100.00;102222.22;5240203;28;20060;-70
2021/11/08 11:20:32;;;;;;;;;;;;;;;11.44;100.00;102213.09;5237825;28;20398;-70
2021/11/08 11:23:15;;;;;;;20.20;6.43;;;;;;;11.07;100.00;102209.41;5236349;28;20157;-70
2021/11/08 11:25:52;;;;;;;21.75;7.28;;;;;;;11.08;100.00;102213.72;5236657;28;20380;-70
2021/11/08 11:28:36;;;;;;;25.13;7.30;;;;;;;11.17;100.00;102210.47;5237523;28;20029;-70
2021/11/08 11:31:20;;;;;;;23.60;6.85;;;;;;;11.26;100.00;102209.88;5236868;28;20033;-70
2021/11/08 11:33:58;;;;;;;22.20;7.65;;;;;;;11.15;100.00;102209.75;5236348;28;20056;-70
2021/11/08 11:36:30;;;;;;;20.27;7.25;;;;;;;11.17;100.00;102202.59;5239451;28;20459;-70
2021/11/08 11:39:07;;;;;;;22.75;7.20;;;;;;;11.31;100.00;102202.53;5235434;28;20047;-70
2021/11/08 11:41:41;;;;;;;18.40;6.30;;;;;;;11.35;100.00;102209.25;5238195;28;20033;-70
2021/11/08 11:44:22;;;;;;;21.63;7.35;;;;;;;11.45;100.00;102206.88;5238022;28;21542;-70
2021/11/08 11:46:56;;;;;;;26.08;6.82;;;;;;;11.46;100.00;102208.56;5240284;28;20099;-70
2021/11/08 11:49:27;;;;;;;20.67;7.25;;;;;;;11.48;100.00;102213.69;5239012;28;20035;-69
2021/11/08 11:52:02;;;;;;;19.30;6.35;;;;;;;11.51;100.00;102221.38;5239662;28;20037;-70
2021/11/08 11:54:33;;;;;;;21.65;6.78;;;;;;;11.53;100.00;102225.56;5240630;28;20406;-70
2021/11/08 11:57:06;;;;;;;20.70;6.15;;;;;;;11.54;100.00;102226.41;5241877;28;20032;-70
2021/11/08 11:59:39;;;;;;;18.75;5.55;;;;;;;11.57;100.00;102221.81;5242093;28;20052;-70
2021/11/08 12:02:10;;;;;;;18.83;5.93;;;;;;;11.61;100.00;102227.69;5243513;28;20033;-70
2021/11/08 12:04:42;;;;;;;23.98;6.68;;;;;;;11.65;100.00;102224.75;5242585;28;20031;-70
2021/11/08 12:07:14;;;;;;;22.52;5.90;;;;;;;11.71;100.00;102207.75;5241334;28;20052;-70
2021/11/08 12:09:46;;;;;;;22.37;6.07;;;;;;;11.76;100.00;102221.41;5242758;28;20431;-70
2021/11/08 12:12:24;;;;;;;18.08;5.65;;;;;;;11.86;100.00;102222.50;5243826;28;20025;-70
2021/11/08 12:15:05;;;;;;;20.23;6.20;;;;;;;11.87;100.00;102216.28;5240864;28;20018;-70
2021/11/08 12:17:43;;;;;;;17.05;5.07;;;;;;;11.95;100.00;102207.88;5247755;28;20025;-70
2021/11/08 12:20:17;;;;;;;21.77;5.57;;;;;;;11.88;100.00;102211.88;5246095;28;20380;-70
2021/11/08 12:22:49;;;;;;;23.52;5.63;;;;;;;11.92;100.00;102213.34;5246902;28;20068;-70
2021/11/08 12:25:27;;;;;;;14.93;4.57;;;;;;;12.06;100.00;102208.00;5248398;28;20465;-70
2021/11/08 12:28:12;;;;;;;21.17;5.72;;;;;;;12.12;100.00;102206.72;5247054;28;20516;-70
2021/11/08 12:30:48;;;;;;;23.98;6.03;;;;;;;12.09;100.00;102214.84;5231116;28;20448;-70
2021/11/08 12:33:27;;;;;;;19.08;5.45;;;;;;;12.12;100.00;102214.59;5248113;28;20086;-70
2021/11/08 12:36:10;;;;;;;21.33;5.75;;;;;;;12.32;100.00;102224.56;5245170;28;20033;-70
2021/11/08 12:38:54;;;;;;;23.88;6.13;;;;;;;12.38;100.00;102225.91;5248423;28;20041;-70
2021/11/08 12:41:35;;;;;;;18.95;6.35;;;;;;;12.49;100.00;102214.66;5246365;28;20087;-70
2021/11/08 12:44:09;;;;;;;17.13;5.00;;;;;;;12.50;100.00;102211.06;5246379;28;20025;-70
2021/11/08 12:46:45;;;;;;;17.10;4.88;;;;;;;12.44;100.00;102207.09;5245538;28;20045;-70
2021/11/08 12:49:17;;;;;;;24.98;6.13;;;;;;;12.45;100.00;102210.56;5246349;28;20395;-70
2021/11/08 12:51:55;;;;;;;24.67;6.30;;;;;;;12.53;100.00;102210.84;5239436;28;20116;-70
2021/11/08 12:54:29;;;;;;;20.38;5.63;;;;;;;12.40;100.00;102195.97;5241506;28;20045;-70
2021/11/08 12:57:07;;;;;;;21.85;5.18;;;;;;;12.47;100.00;102198.16;5226974;28;20042;-70
2021/11/08 12:59:47;;;;;;;19.75;5.13;;;;;;;12.60;100.00;102193.69;5240495;28;20106;-70
2021/11/08 13:02:43;;;;;;;18.42;4.78;;;;;;;12.66;100.00;102185.38;5240500;28;20033;-71
2021/11/08 13:05:33;;;;;;;17.83;4.68;;;;;;;12.62;100.00;102189.19;5239362;28;20029;-70
2021/11/08 13:08:26;;;;;;;16.23;4.93;;;;;;;12.65;100.00;102184.53;5239769;28;20026;-70
2021/11/08 13:11:10;;;;;;;19.38;4.18;;;;;;;12.58;100.00;102185.09;5239636;28;20326;-70
2021/11/08 13:13:55;;;;;;;18.85;4.55;;;;;;;12.68;100.00;102175.56;5239802;28;20022;-70
2021/11/08 13:16:41;;;;;;;16.77;4.43;;;;;;;12.71;100.00;102187.66;5241039;28;20109;-70
2021/11/08 13:19:15;;;;;;;14.52;3.70;;;;;;;12.68;100.00;102172.09;5238672;28;20029;-71
2021/11/08 13:21:46;;;;;;;22.83;6.07;;;;;;;12.70;100.00;102181.56;5239948;28;20127;-70